Ana Sayfa
METAR-TAF:

METAR-TAF

Havaalanları :

San José del Cabo, Meksika

Enlem: 23-09N, Boylam: 109-42W, yükseklik: 109 m

Güncel hava durumu gözlemi

Rapor saat 00:40 UTC de 57 dakika önce yapıldı.
Rüzgar güneydoğudan 10 kt
Sıcaklık 32°C
Nem 24%
Basınç 1011 hPa
Görüş mesafesi: 19.3 km
25000 ft yükseklikte az bulutlu

METAR: MMSD 200040Z 13010KT 12SM FEW250 32/09 A2985 RMK 8/001 AC

Saat: 19:37 (01:37 UTC)

Tahmin

Rapor saat 16:40 UTC de 8 saat ve 57 dakika önce yapıldı.
Ayın 19'si saat 18 UTC'den ayın 20'si saat 18 UTC'ye kadar geçerli Tahmin
Rüzgar güneydoğudan 15 kt
Görüş mesafesi: 10 km
Açık gökyüzü
Ayın 20'si saat 0300 UTC'den
Rüzgar batıdan 5 kt
Görüş mesafesi: 10 km
25000 ft yükseklikte parçalı bulutlu

TAF: MMSD 191640Z 1918/2018 14015KT P6SM SKC FM200300 28005KT P6SM SCT250

4.000'den fazla havaalanı için hava durumu gözlemleri ve tahminleri (METAR ve TAF raporları).

Kullanılabilir istasyonlar harita üzerinde sarı ve kırmızı noktalarla gösterilir.

İstasyonun adını görmek için fareyi noktanın üzerinde gezdirin.

Sonrasında hava gözlem ve tahminlerini görmek için tıklayın.

Haritayı değiştirmek için: yaklaştırmak için siyah artı işaretli yeşil düğmeye ve uzaklaştırmak için de eksi işaretli düğmeye hızla tıklayın; bitişik haritalar için yeşil okları kullanın.


METAR-TAF: